sensor_id;sensor_type;location;lat;lon;timestamp;P1;durP1;ratioP1;P2;durP2;ratioP2
48629;SDS011;34426;52.180;4.462;2023-02-11T00:02:02;32.92;;;6.45;;
48629;SDS011;34426;52.180;4.462;2023-02-11T00:04:30;49.42;;;6.65;;
48629;SDS011;34426;52.180;4.462;2023-02-11T00:06:58;46.58;;;6.47;;
48629;SDS011;34426;52.180;4.462;2023-02-11T00:09:25;47.95;;;6.32;;
48629;SDS011;34426;52.180;4.462;2023-02-11T00:11:53;34.83;;;5.78;;
48629;SDS011;34426;52.180;4.462;2023-02-11T00:14:22;42.90;;;7.22;;
48629;SDS011;34426;52.180;4.462;2023-02-11T00:16:50;40.63;;;6.50;;
48629;SDS011;34426;52.180;4.462;2023-02-11T00:19:17;36.88;;;6.85;;
48629;SDS011;34426;52.180;4.462;2023-02-11T00:21:44;42.05;;;6.47;;
48629;SDS011;34426;52.180;4.462;2023-02-11T00:24:12;40.00;;;7.80;;
48629;SDS011;34426;52.180;4.462;2023-02-11T00:26:40;40.45;;;6.85;;
48629;SDS011;34426;52.180;4.462;2023-02-11T00:29:08;46.05;;;6.60;;
48629;SDS011;34426;52.180;4.462;2023-02-11T00:31:39;50.47;;;7.85;;
48629;SDS011;34426;52.180;4.462;2023-02-11T00:34:07;37.03;;;5.80;;
48629;SDS011;34426;52.180;4.462;2023-02-11T00:36:35;40.65;;;6.75;;
48629;SDS011;34426;52.180;4.462;2023-02-11T00:39:03;37.22;;;6.57;;
48629;SDS011;34426;52.180;4.462;2023-02-11T00:41:31;46.25;;;7.13;;
48629;SDS011;34426;52.180;4.462;2023-02-11T00:43:59;37.00;;;6.32;;
48629;SDS011;34426;52.180;4.462;2023-02-11T00:46:26;41.20;;;7.00;;
48629;SDS011;34426;52.180;4.462;2023-02-11T00:48:56;50.63;;;7.88;;
48629;SDS011;34426;52.180;4.462;2023-02-11T00:51:23;35.92;;;6.45;;
48629;SDS011;34426;52.180;4.462;2023-02-11T00:53:52;41.60;;;6.82;;
48629;SDS011;34426;52.180;4.462;2023-02-11T00:56:20;41.53;;;6.80;;
48629;SDS011;34426;52.180;4.462;2023-02-11T00:58:48;31.70;;;6.13;;
48629;SDS011;34426;52.180;4.462;2023-02-11T01:01:16;38.67;;;6.95;;
48629;SDS011;34426;52.180;4.462;2023-02-11T01:03:44;39.90;;;7.40;;
48629;SDS011;34426;52.180;4.462;2023-02-11T01:06:13;33.22;;;6.65;;
48629;SDS011;34426;52.180;4.462;2023-02-11T01:08:41;49.13;;;8.30;;
48629;SDS011;34426;52.180;4.462;2023-02-11T01:11:11;41.80;;;7.80;;
48629;SDS011;34426;52.180;4.462;2023-02-11T01:13:41;36.67;;;6.60;;
48629;SDS011;34426;52.180;4.462;2023-02-11T01:16:09;37.85;;;7.22;;
48629;SDS011;34426;52.180;4.462;2023-02-11T01:18:37;47.45;;;7.15;;
48629;SDS011;34426;52.180;4.462;2023-02-11T01:21:06;39.92;;;7.28;;
48629;SDS011;34426;52.180;4.462;2023-02-11T01:23:35;46.28;;;9.32;;
48629;SDS011;34426;52.180;4.462;2023-02-11T01:26:03;44.53;;;7.53;;
48629;SDS011;34426;52.180;4.462;2023-02-11T01:28:30;45.65;;;8.60;;
48629;SDS011;34426;52.180;4.462;2023-02-11T01:30:58;40.85;;;7.53;;
48629;SDS011;34426;52.180;4.462;2023-02-11T01:33:27;37.13;;;7.85;;
48629;SDS011;34426;52.180;4.462;2023-02-11T01:35:55;48.00;;;8.00;;
48629;SDS011;34426;52.180;4.462;2023-02-11T01:38:26;48.53;;;10.95;;
48629;SDS011;34426;52.180;4.462;2023-02-11T01:40:57;40.70;;;8.10;;
48629;SDS011;34426;52.180;4.462;2023-02-11T01:43:26;48.10;;;9.02;;
48629;SDS011;34426;52.180;4.462;2023-02-11T01:46:00;43.50;;;8.23;;
48629;SDS011;34426;52.180;4.462;2023-02-11T01:48:38;52.05;;;9.05;;
48629;SDS011;34426;52.180;4.462;2023-02-11T01:51:08;52.20;;;8.65;;
48629;SDS011;34426;52.180;4.462;2023-02-11T01:53:39;43.03;;;9.60;;
48629;SDS011;34426;52.180;4.462;2023-02-11T01:56:10;43.53;;;8.35;;
48629;SDS011;34426;52.180;4.462;2023-02-11T01:58:39;49.53;;;10.23;;
48629;SDS011;34426;52.180;4.462;2023-02-11T02:01:09;44.42;;;8.77;;
48629;SDS011;34426;52.180;4.462;2023-02-11T02:03:39;36.97;;;9.90;;
48629;SDS011;34426;52.180;4.462;2023-02-11T02:06:13;56.80;;;9.20;;
48629;SDS011;34426;52.180;4.462;2023-02-11T02:08:46;53.42;;;9.15;;
48629;SDS011;34426;52.180;4.462;2023-02-11T02:11:23;49.58;;;9.32;;
48629;SDS011;34426;52.180;4.462;2023-02-11T02:13:50;53.60;;;9.55;;
48629;SDS011;34426;52.180;4.462;2023-02-11T02:16:18;46.53;;;9.65;;
48629;SDS011;34426;52.180;4.462;2023-02-11T02:18:52;51.60;;;10.27;;
48629;SDS011;34426;52.180;4.462;2023-02-11T02:21:51;54.40;;;10.30;;
48629;SDS011;34426;52.180;4.462;2023-02-11T02:24:55;57.75;;;11.18;;
48629;SDS011;34426;52.180;4.462;2023-02-11T02:27:43;44.47;;;10.82;;
48629;SDS011;34426;52.180;4.462;2023-02-11T02:30:28;53.65;;;12.77;;
48629;SDS011;34426;52.180;4.462;2023-02-11T02:33:20;53.08;;;12.15;;
48629;SDS011;34426;52.180;4.462;2023-02-11T02:35:59;48.30;;;11.27;;
48629;SDS011;34426;52.180;4.462;2023-02-11T02:38:34;51.85;;;11.73;;
48629;SDS011;34426;52.180;4.462;2023-02-11T02:41:06;51.67;;;10.82;;
48629;SDS011;34426;52.180;4.462;2023-02-11T02:43:40;46.50;;;11.70;;
48629;SDS011;34426;52.180;4.462;2023-02-11T02:46:12;51.70;;;11.55;;
48629;SDS011;34426;52.180;4.462;2023-02-11T02:48:43;68.00;;;12.55;;
48629;SDS011;34426;52.180;4.462;2023-02-11T02:51:16;60.97;;;14.20;;
48629;SDS011;34426;52.180;4.462;2023-02-11T02:54:23;50.28;;;12.75;;
48629;SDS011;34426;52.180;4.462;2023-02-11T02:57:18;46.97;;;14.02;;
48629;SDS011;34426;52.180;4.462;2023-02-11T02:59:56;62.45;;;14.00;;
48629;SDS011;34426;52.180;4.462;2023-02-11T03:02:38;55.47;;;14.68;;
48629;SDS011;34426;52.180;4.462;2023-02-11T03:05:16;66.15;;;14.25;;
48629;SDS011;34426;52.180;4.462;2023-02-11T03:07:47;49.13;;;13.40;;
48629;SDS011;34426;52.180;4.462;2023-02-11T03:10:19;63.88;;;14.85;;
48629;SDS011;34426;52.180;4.462;2023-02-11T03:12:50;66.05;;;15.55;;
48629;SDS011;34426;52.180;4.462;2023-02-11T03:15:20;69.43;;;15.38;;
48629;SDS011;34426;52.180;4.462;2023-02-11T03:17:50;62.65;;;16.50;;
48629;SDS011;34426;52.180;4.462;2023-02-11T03:20:22;54.00;;;15.57;;
48629;SDS011;34426;52.180;4.462;2023-02-11T03:22:51;67.82;;;15.57;;
48629;SDS011;34426;52.180;4.462;2023-02-11T03:25:24;66.40;;;16.85;;
48629;SDS011;34426;52.180;4.462;2023-02-11T03:27:56;61.47;;;17.83;;
48629;SDS011;34426;52.180;4.462;2023-02-11T03:30:29;64.68;;;18.38;;
48629;SDS011;34426;52.180;4.462;2023-02-11T03:33:05;72.80;;;17.40;;
48629;SDS011;34426;52.180;4.462;2023-02-11T03:35:42;60.88;;;16.60;;
48629;SDS011;34426;52.180;4.462;2023-02-11T03:38:16;52.85;;;16.88;;
48629;SDS011;34426;52.180;4.462;2023-02-11T03:40:48;66.70;;;17.83;;
48629;SDS011;34426;52.180;4.462;2023-02-11T03:43:18;68.25;;;19.85;;
48629;SDS011;34426;52.180;4.462;2023-02-11T03:45:47;63.10;;;19.58;;
48629;SDS011;34426;52.180;4.462;2023-02-11T03:48:18;62.60;;;19.15;;
48629;SDS011;34426;52.180;4.462;2023-02-11T03:50:50;88.07;;;20.98;;
48629;SDS011;34426;52.180;4.462;2023-02-11T03:53:19;81.93;;;19.73;;
48629;SDS011;34426;52.180;4.462;2023-02-11T03:55:48;64.70;;;18.75;;
48629;SDS011;34426;52.180;4.462;2023-02-11T03:58:17;75.95;;;18.90;;
48629;SDS011;34426;52.180;4.462;2023-02-11T04:00:44;69.82;;;20.45;;
48629;SDS011;34426;52.180;4.462;2023-02-11T04:03:12;79.45;;;20.75;;
48629;SDS011;34426;52.180;4.462;2023-02-11T04:05:40;70.72;;;20.33;;
48629;SDS011;34426;52.180;4.462;2023-02-11T04:08:10;72.60;;;21.60;;
48629;SDS011;34426;52.180;4.462;2023-02-11T04:10:37;72.32;;;21.25;;
48629;SDS011;34426;52.180;4.462;2023-02-11T04:13:05;80.03;;;22.00;;
48629;SDS011;34426;52.180;4.462;2023-02-11T04:15:33;65.45;;;23.90;;
48629;SDS011;34426;52.180;4.462;2023-02-11T04:18:00;88.80;;;25.30;;
48629;SDS011;34426;52.180;4.462;2023-02-11T04:20:28;82.20;;;24.52;;
48629;SDS011;34426;52.180;4.462;2023-02-11T04:22:56;82.63;;;25.60;;
48629;SDS011;34426;52.180;4.462;2023-02-11T04:25:25;75.22;;;25.55;;
48629;SDS011;34426;52.180;4.462;2023-02-11T04:27:53;80.65;;;26.50;;
48629;SDS011;34426;52.180;4.462;2023-02-11T04:30:20;88.82;;;27.85;;
48629;SDS011;34426;52.180;4.462;2023-02-11T04:32:47;86.28;;;25.35;;
48629;SDS011;34426;52.180;4.462;2023-02-11T04:35:15;82.78;;;26.98;;
48629;SDS011;34426;52.180;4.462;2023-02-11T04:37:42;81.18;;;28.55;;
48629;SDS011;34426;52.180;4.462;2023-02-11T04:40:10;77.80;;;28.60;;
48629;SDS011;34426;52.180;4.462;2023-02-11T04:42:40;74.72;;;27.20;;
48629;SDS011;34426;52.180;4.462;2023-02-11T04:45:07;83.97;;;28.40;;
48629;SDS011;34426;52.180;4.462;2023-02-11T04:47:35;75.15;;;29.27;;
48629;SDS011;34426;52.180;4.462;2023-02-11T04:50:02;76.63;;;28.40;;
48629;SDS011;34426;52.180;4.462;2023-02-11T04:52:29;86.25;;;29.35;;
48629;SDS011;34426;52.180;4.462;2023-02-11T04:54:57;78.82;;;28.80;;
48629;SDS011;34426;52.180;4.462;2023-02-11T04:57:24;78.80;;;30.77;;
48629;SDS011;34426;52.180;4.462;2023-02-11T04:59:53;86.22;;;31.80;;
48629;SDS011;34426;52.180;4.462;2023-02-11T05:02:21;76.65;;;31.50;;
48629;SDS011;34426;52.180;4.462;2023-02-11T05:04:48;89.15;;;32.95;;
48629;SDS011;34426;52.180;4.462;2023-02-11T05:07:16;77.57;;;32.45;;
48629;SDS011;34426;52.180;4.462;2023-02-11T05:09:43;87.00;;;34.70;;
48629;SDS011;34426;52.180;4.462;2023-02-11T05:12:11;80.25;;;34.10;;
48629;SDS011;34426;52.180;4.462;2023-02-11T05:14:38;87.53;;;34.30;;
48629;SDS011;34426;52.180;4.462;2023-02-11T05:17:07;86.68;;;34.45;;
48629;SDS011;34426;52.180;4.462;2023-02-11T05:19:35;100.93;;;35.92;;
48629;SDS011;34426;52.180;4.462;2023-02-11T05:22:02;89.45;;;35.58;;
48629;SDS011;34426;52.180;4.462;2023-02-11T05:24:30;88.63;;;34.95;;
48629;SDS011;34426;52.180;4.462;2023-02-11T05:26:57;77.65;;;34.17;;
48629;SDS011;34426;52.180;4.462;2023-02-11T05:29:25;90.57;;;35.60;;
48629;SDS011;34426;52.180;4.462;2023-02-11T05:31:53;85.07;;;35.72;;
48629;SDS011;34426;52.180;4.462;2023-02-11T05:34:23;90.45;;;35.75;;
48629;SDS011;34426;52.180;4.462;2023-02-11T05:36:51;86.72;;;36.72;;
48629;SDS011;34426;52.180;4.462;2023-02-11T05:39:18;96.85;;;36.40;;
48629;SDS011;34426;52.180;4.462;2023-02-11T05:41:46;92.43;;;38.17;;
48629;SDS011;34426;52.180;4.462;2023-02-11T05:44:13;79.25;;;38.55;;
48629;SDS011;34426;52.180;4.462;2023-02-11T05:46:40;85.60;;;37.55;;
48629;SDS011;34426;52.180;4.462;2023-02-11T05:49:08;84.22;;;36.75;;
48629;SDS011;34426;52.180;4.462;2023-02-11T05:51:38;96.05;;;38.13;;
48629;SDS011;34426;52.180;4.462;2023-02-11T05:54:05;86.68;;;38.50;;
48629;SDS011;34426;52.180;4.462;2023-02-11T05:56:32;92.75;;;38.28;;
48629;SDS011;34426;52.180;4.462;2023-02-11T05:59:00;96.72;;;38.97;;
48629;SDS011;34426;52.180;4.462;2023-02-11T06:01:27;80.55;;;36.55;;
48629;SDS011;34426;52.180;4.462;2023-02-11T06:03:55;90.03;;;38.45;;
48629;SDS011;34426;52.180;4.462;2023-02-11T06:06:22;86.25;;;38.08;;
48629;SDS011;34426;52.180;4.462;2023-02-11T06:08:52;86.72;;;38.78;;
48629;SDS011;34426;52.180;4.462;2023-02-11T06:11:19;83.30;;;36.80;;
48629;SDS011;34426;52.180;4.462;2023-02-11T06:13:47;84.30;;;36.85;;
48629;SDS011;34426;52.180;4.462;2023-02-11T06:16:14;80.85;;;36.10;;
48629;SDS011;34426;52.180;4.462;2023-02-11T06:18:42;89.75;;;38.13;;
48629;SDS011;34426;52.180;4.462;2023-02-11T06:21:10;86.00;;;37.53;;
48629;SDS011;34426;52.180;4.462;2023-02-11T06:23:37;89.90;;;38.47;;
48629;SDS011;34426;52.180;4.462;2023-02-11T06:26:07;94.32;;;38.50;;
48629;SDS011;34426;52.180;4.462;2023-02-11T06:28:41;82.45;;;37.78;;
48629;SDS011;34426;52.180;4.462;2023-02-11T06:31:08;84.25;;;37.85;;
48629;SDS011;34426;52.180;4.462;2023-02-11T06:33:36;89.07;;;39.50;;
48629;SDS011;34426;52.180;4.462;2023-02-11T06:36:08;81.22;;;38.45;;
48629;SDS011;34426;52.180;4.462;2023-02-11T06:38:39;85.70;;;38.20;;
48629;SDS011;34426;52.180;4.462;2023-02-11T06:41:10;81.38;;;37.75;;
48629;SDS011;34426;52.180;4.462;2023-02-11T06:43:38;70.43;;;37.53;;
48629;SDS011;34426;52.180;4.462;2023-02-11T06:46:06;79.60;;;37.70;;
48629;SDS011;34426;52.180;4.462;2023-02-11T06:48:34;72.68;;;38.10;;
48629;SDS011;34426;52.180;4.462;2023-02-11T06:51:02;81.53;;;36.90;;
48629;SDS011;34426;52.180;4.462;2023-02-11T06:53:34;73.90;;;36.83;;
48629;SDS011;34426;52.180;4.462;2023-02-11T06:56:02;71.07;;;35.90;;
48629;SDS011;34426;52.180;4.462;2023-02-11T06:58:34;76.30;;;36.80;;
48629;SDS011;34426;52.180;4.462;2023-02-11T07:01:03;67.75;;;36.17;;
48629;SDS011;34426;52.180;4.462;2023-02-11T07:03:31;69.28;;;36.38;;
48629;SDS011;34426;52.180;4.462;2023-02-11T07:05:58;64.43;;;35.95;;
48629;SDS011;34426;52.180;4.462;2023-02-11T07:08:26;68.10;;;36.50;;
48629;SDS011;34426;52.180;4.462;2023-02-11T07:10:53;71.22;;;36.30;;
48629;SDS011;34426;52.180;4.462;2023-02-11T07:13:21;71.70;;;37.45;;
48629;SDS011;34426;52.180;4.462;2023-02-11T07:15:50;64.78;;;35.42;;
48629;SDS011;34426;52.180;4.462;2023-02-11T07:18:17;67.70;;;33.90;;
48629;SDS011;34426;52.180;4.462;2023-02-11T07:20:45;61.28;;;33.38;;
48629;SDS011;34426;52.180;4.462;2023-02-11T07:23:12;73.97;;;33.58;;
48629;SDS011;34426;52.180;4.462;2023-02-11T07:25:40;61.40;;;33.05;;
48629;SDS011;34426;52.180;4.462;2023-02-11T07:28:07;64.32;;;34.00;;
48629;SDS011;34426;52.180;4.462;2023-02-11T07:30:35;64.35;;;32.88;;
48629;SDS011;34426;52.180;4.462;2023-02-11T07:33:04;57.13;;;32.45;;
48629;SDS011;34426;52.180;4.462;2023-02-11T07:35:32;64.32;;;32.78;;
48629;SDS011;34426;52.180;4.462;2023-02-11T07:37:59;60.88;;;32.60;;
48629;SDS011;34426;52.180;4.462;2023-02-11T07:40:26;69.47;;;34.63;;
48629;SDS011;34426;52.180;4.462;2023-02-11T07:42:54;58.25;;;32.08;;
48629;SDS011;34426;52.180;4.462;2023-02-11T07:45:21;60.53;;;31.48;;
48629;SDS011;34426;52.180;4.462;2023-02-11T07:47:49;62.75;;;31.00;;
48629;SDS011;34426;52.180;4.462;2023-02-11T07:50:18;53.70;;;30.25;;
48629;SDS011;34426;52.180;4.462;2023-02-11T07:52:45;58.63;;;31.17;;
48629;SDS011;34426;52.180;4.462;2023-02-11T07:55:13;52.67;;;30.50;;
48629;SDS011;34426;52.180;4.462;2023-02-11T07:57:40;52.92;;;29.48;;
48629;SDS011;34426;52.180;4.462;2023-02-11T08:00:08;51.75;;;30.80;;
48629;SDS011;34426;52.180;4.462;2023-02-11T08:02:36;63.70;;;31.60;;
48629;SDS011;34426;52.180;4.462;2023-02-11T08:05:04;51.85;;;28.48;;
48629;SDS011;34426;52.180;4.462;2023-02-11T08:07:34;53.42;;;30.60;;
48629;SDS011;34426;52.180;4.462;2023-02-11T08:10:01;57.17;;;29.58;;
48629;SDS011;34426;52.180;4.462;2023-02-11T08:12:29;53.50;;;30.70;;
48629;SDS011;34426;52.180;4.462;2023-02-11T08:14:57;54.80;;;30.08;;
48629;SDS011;34426;52.180;4.462;2023-02-11T08:17:24;54.03;;;28.95;;
48629;SDS011;34426;52.180;4.462;2023-02-11T08:19:52;53.80;;;28.55;;
48629;SDS011;34426;52.180;4.462;2023-02-11T08:22:19;57.00;;;29.77;;
48629;SDS011;34426;52.180;4.462;2023-02-11T08:24:48;49.15;;;28.08;;
48629;SDS011;34426;52.180;4.462;2023-02-11T08:27:15;48.67;;;28.40;;
48629;SDS011;34426;52.180;4.462;2023-02-11T08:29:43;50.05;;;27.23;;
48629;SDS011;34426;52.180;4.462;2023-02-11T08:32:11;51.95;;;27.70;;
48629;SDS011;34426;52.180;4.462;2023-02-11T08:34:38;54.10;;;26.95;;
48629;SDS011;34426;52.180;4.462;2023-02-11T08:37:05;50.58;;;27.00;;
48629;SDS011;34426;52.180;4.462;2023-02-11T08:39:33;47.88;;;26.45;;
48629;SDS011;34426;52.180;4.462;2023-02-11T08:42:02;49.70;;;25.52;;
48629;SDS011;34426;52.180;4.462;2023-02-11T08:44:30;49.67;;;26.92;;
48629;SDS011;34426;52.180;4.462;2023-02-11T08:46:58;48.08;;;25.20;;
48629;SDS011;34426;52.180;4.462;2023-02-11T08:49:26;47.97;;;25.75;;
48629;SDS011;34426;52.180;4.462;2023-02-11T08:51:53;43.92;;;25.30;;
48629;SDS011;34426;52.180;4.462;2023-02-11T08:54:21;49.70;;;24.55;;
48629;SDS011;34426;52.180;4.462;2023-02-11T08:56:49;45.20;;;23.92;;
48629;SDS011;34426;52.180;4.462;2023-02-11T08:59:19;57.97;;;24.75;;
48629;SDS011;34426;52.180;4.462;2023-02-11T09:01:46;42.88;;;23.65;;
48629;SDS011;34426;52.180;4.462;2023-02-11T09:04:14;42.65;;;23.38;;
48629;SDS011;34426;52.180;4.462;2023-02-11T09:06:41;42.15;;;23.02;;
48629;SDS011;34426;52.180;4.462;2023-02-11T09:09:09;38.03;;;22.63;;
48629;SDS011;34426;52.180;4.462;2023-02-11T09:11:38;39.63;;;22.75;;
48629;SDS011;34426;52.180;4.462;2023-02-11T09:14:09;43.28;;;22.30;;
48629;SDS011;34426;52.180;4.462;2023-02-11T09:16:44;38.45;;;21.10;;
48629;SDS011;34426;52.180;4.462;2023-02-11T09:19:12;39.38;;;19.70;;
48629;SDS011;34426;52.180;4.462;2023-02-11T09:21:39;45.95;;;21.25;;
48629;SDS011;34426;52.180;4.462;2023-02-11T09:24:07;36.13;;;20.23;;
48629;SDS011;34426;52.180;4.462;2023-02-11T09:26:35;39.75;;;20.48;;
48629;SDS011;34426;52.180;4.462;2023-02-11T09:29:06;43.00;;;20.35;;
48629;SDS011;34426;52.180;4.462;2023-02-11T09:31:33;46.20;;;21.10;;
48629;SDS011;34426;52.180;4.462;2023-02-11T09:34:04;39.17;;;19.17;;
48629;SDS011;34426;52.180;4.462;2023-02-11T09:36:32;42.83;;;20.08;;
48629;SDS011;34426;52.180;4.462;2023-02-11T09:39:00;40.03;;;19.13;;
48629;SDS011;34426;52.180;4.462;2023-02-11T09:41:34;44.03;;;19.80;;
48629;SDS011;34426;52.180;4.462;2023-02-11T09:44:27;41.90;;;19.20;;
48629;SDS011;34426;52.180;4.462;2023-02-11T09:46:57;37.85;;;21.02;;
48629;SDS011;34426;52.180;4.462;2023-02-11T09:49:32;33.53;;;18.85;;
48629;SDS011;34426;52.180;4.462;2023-02-11T09:52:06;38.03;;;20.13;;
48629;SDS011;34426;52.180;4.462;2023-02-11T09:54:43;32.45;;;17.80;;
48629;SDS011;34426;52.180;4.462;2023-02-11T09:57:17;34.88;;;19.25;;
48629;SDS011;34426;52.180;4.462;2023-02-11T09:59:43;45.50;;;20.17;;
48629;SDS011;34426;52.180;4.462;2023-02-11T10:02:10;36.35;;;20.20;;
48629;SDS011;34426;52.180;4.462;2023-02-11T10:04:52;31.05;;;19.60;;
48629;SDS011;34426;52.180;4.462;2023-02-11T10:07:39;35.38;;;18.90;;
48629;SDS011;34426;52.180;4.462;2023-02-11T10:10:18;36.72;;;19.75;;
48629;SDS011;34426;52.180;4.462;2023-02-11T10:13:03;35.47;;;19.23;;
48629;SDS011;34426;52.180;4.462;2023-02-11T10:15:43;40.53;;;19.23;;
48629;SDS011;34426;52.180;4.462;2023-02-11T10:18:27;38.00;;;19.90;;
48629;SDS011;34426;52.180;4.462;2023-02-11T10:21:09;34.75;;;18.13;;
48629;SDS011;34426;52.180;4.462;2023-02-11T10:23:45;33.70;;;17.95;;
48629;SDS011;34426;52.180;4.462;2023-02-11T10:26:16;33.00;;;18.10;;
48629;SDS011;34426;52.180;4.462;2023-02-11T10:28:45;34.03;;;18.38;;
48629;SDS011;34426;52.180;4.462;2023-02-11T10:31:16;36.60;;;19.33;;
48629;SDS011;34426;52.180;4.462;2023-02-11T10:33:49;36.97;;;18.90;;
48629;SDS011;34426;52.180;4.462;2023-02-11T10:36:25;34.47;;;17.90;;
48629;SDS011;34426;52.180;4.462;2023-02-11T10:38:54;29.20;;;16.75;;
48629;SDS011;34426;52.180;4.462;2023-02-11T10:41:25;31.38;;;17.77;;
48629;SDS011;34426;52.180;4.462;2023-02-11T10:43:58;39.78;;;17.38;;
48629;SDS011;34426;52.180;4.462;2023-02-11T10:46:28;32.30;;;17.83;;
48629;SDS011;34426;52.180;4.462;2023-02-11T10:48:58;34.40;;;18.05;;
48629;SDS011;34426;52.180;4.462;2023-02-11T10:51:28;36.38;;;16.13;;
48629;SDS011;34426;52.180;4.462;2023-02-11T10:54:09;29.67;;;16.40;;
48629;SDS011;34426;52.180;4.462;2023-02-11T10:56:41;31.02;;;16.60;;
48629;SDS011;34426;52.180;4.462;2023-02-11T10:59:14;30.23;;;17.67;;
48629;SDS011;34426;52.180;4.462;2023-02-11T11:01:49;32.55;;;17.42;;
48629;SDS011;34426;52.180;4.462;2023-02-11T11:04:34;29.77;;;16.67;;
48629;SDS011;34426;52.180;4.462;2023-02-11T11:07:22;39.25;;;17.85;;
48629;SDS011;34426;52.180;4.462;2023-02-11T11:09:51;27.83;;;16.50;;
48629;SDS011;34426;52.180;4.462;2023-02-11T11:12:26;29.48;;;17.25;;
48629;SDS011;34426;52.180;4.462;2023-02-11T11:14:56;30.85;;;17.23;;
48629;SDS011;34426;52.180;4.462;2023-02-11T11:17:26;32.70;;;19.15;;
48629;SDS011;34426;52.180;4.462;2023-02-11T11:19:53;28.63;;;17.08;;
48629;SDS011;34426;52.180;4.462;2023-02-11T11:22:38;29.63;;;17.83;;
48629;SDS011;34426;52.180;4.462;2023-02-11T11:25:18;31.00;;;17.25;;
48629;SDS011;34426;52.180;4.462;2023-02-11T11:27:50;30.63;;;18.55;;
48629;SDS011;34426;52.180;4.462;2023-02-11T11:30:22;30.30;;;17.15;;
48629;SDS011;34426;52.180;4.462;2023-02-11T11:32:53;31.42;;;17.15;;
48629;SDS011;34426;52.180;4.462;2023-02-11T11:35:22;32.20;;;17.50;;
48629;SDS011;34426;52.180;4.462;2023-02-11T11:37:57;31.33;;;18.67;;
48629;SDS011;34426;52.180;4.462;2023-02-11T11:40:27;36.42;;;18.30;;
48629;SDS011;34426;52.180;4.462;2023-02-11T11:43:08;29.15;;;17.77;;
48629;SDS011;34426;52.180;4.462;2023-02-11T11:45:51;33.83;;;18.02;;
48629;SDS011;34426;52.180;4.462;2023-02-11T11:48:20;31.50;;;17.83;;
48629;SDS011;34426;52.180;4.462;2023-02-11T11:50:52;32.85;;;17.48;;
48629;SDS011;34426;52.180;4.462;2023-02-11T11:53:28;33.70;;;17.50;;
48629;SDS011;34426;52.180;4.462;2023-02-11T11:56:02;32.25;;;16.73;;
48629;SDS011;34426;52.180;4.462;2023-02-11T11:58:29;27.85;;;16.83;;
48629;SDS011;34426;52.180;4.462;2023-02-11T12:00:58;31.60;;;16.10;;
48629;SDS011;34426;52.180;4.462;2023-02-11T12:03:52;33.15;;;16.67;;
48629;SDS011;34426;52.180;4.462;2023-02-11T12:06:41;26.33;;;16.77;;
48629;SDS011;34426;52.180;4.462;2023-02-11T12:09:22;31.23;;;16.30;;
48629;SDS011;34426;52.180;4.462;2023-02-11T12:12:00;26.25;;;15.30;;
48629;SDS011;34426;52.180;4.462;2023-02-11T12:14:51;23.30;;;14.60;;
48629;SDS011;34426;52.180;4.462;2023-02-11T12:17:31;31.40;;;16.15;;
48629;SDS011;34426;52.180;4.462;2023-02-11T12:20:20;30.48;;;15.98;;
48629;SDS011;34426;52.180;4.462;2023-02-11T12:22:56;30.50;;;15.48;;
48629;SDS011;34426;52.180;4.462;2023-02-11T12:25:33;26.75;;;15.27;;
48629;SDS011;34426;52.180;4.462;2023-02-11T12:28:13;25.40;;;13.82;;
48629;SDS011;34426;52.180;4.462;2023-02-11T12:30:55;30.80;;;16.13;;
48629;SDS011;34426;52.180;4.462;2023-02-11T12:33:38;25.10;;;13.82;;
48629;SDS011;34426;52.180;4.462;2023-02-11T12:36:28;24.80;;;12.40;;
48629;SDS011;34426;52.180;4.462;2023-02-11T12:39:14;23.10;;;13.40;;
48629;SDS011;34426;52.180;4.462;2023-02-11T12:41:54;23.42;;;13.18;;
48629;SDS011;34426;52.180;4.462;2023-02-11T12:44:48;21.00;;;12.93;;
48629;SDS011;34426;52.180;4.462;2023-02-11T12:47:30;22.40;;;12.27;;
48629;SDS011;34426;52.180;4.462;2023-02-11T12:50:09;25.63;;;12.95;;
48629;SDS011;34426;52.180;4.462;2023-02-11T12:52:49;26.33;;;12.80;;
48629;SDS011;34426;52.180;4.462;2023-02-11T12:55:38;20.38;;;11.48;;
48629;SDS011;34426;52.180;4.462;2023-02-11T12:58:12;23.48;;;11.60;;
48629;SDS011;34426;52.180;4.462;2023-02-11T13:00:45;20.02;;;10.43;;
48629;SDS011;34426;52.180;4.462;2023-02-11T13:03:18;22.92;;;11.57;;
48629;SDS011;34426;52.180;4.462;2023-02-11T13:05:49;23.95;;;11.57;;
48629;SDS011;34426;52.180;4.462;2023-02-11T13:08:20;24.70;;;11.48;;
48629;SDS011;34426;52.180;4.462;2023-02-11T13:10:54;23.30;;;10.45;;
48629;SDS011;34426;52.180;4.462;2023-02-11T13:13:25;25.65;;;10.80;;
48629;SDS011;34426;52.180;4.462;2023-02-11T13:15:58;21.20;;;10.10;;
48629;SDS011;34426;52.180;4.462;2023-02-11T13:18:48;19.35;;;10.73;;
48629;SDS011;34426;52.180;4.462;2023-02-11T13:24:16;21.15;;;10.68;;
48629;SDS011;34426;52.180;4.462;2023-02-11T13:26:51;19.27;;;10.63;;
48629;SDS011;34426;52.180;4.462;2023-02-11T13:29:32;23.52;;;11.27;;
48629;SDS011;34426;52.180;4.462;2023-02-11T13:32:10;20.77;;;10.82;;
48629;SDS011;34426;52.180;4.462;2023-02-11T13:34:57;19.15;;;10.40;;
48629;SDS011;34426;52.180;4.462;2023-02-11T13:37:25;19.27;;;9.30;;
48629;SDS011;34426;52.180;4.462;2023-02-11T13:39:57;20.52;;;10.30;;
48629;SDS011;34426;52.180;4.462;2023-02-11T13:42:26;16.85;;;10.57;;
48629;SDS011;34426;52.180;4.462;2023-02-11T13:44:56;19.17;;;10.43;;
48629;SDS011;34426;52.180;4.462;2023-02-11T13:47:27;21.23;;;9.50;;
48629;SDS011;34426;52.180;4.462;2023-02-11T13:49:56;19.42;;;10.13;;
48629;SDS011;34426;52.180;4.462;2023-02-11T13:52:25;18.88;;;9.63;;
48629;SDS011;34426;52.180;4.462;2023-02-11T13:54:55;18.67;;;9.77;;
48629;SDS011;34426;52.180;4.462;2023-02-11T13:57:31;22.38;;;10.07;;
48629;SDS011;34426;52.180;4.462;2023-02-11T14:00:03;23.20;;;10.10;;
48629;SDS011;34426;52.180;4.462;2023-02-11T14:02:44;21.05;;;9.25;;
48629;SDS011;34426;52.180;4.462;2023-02-11T14:08:37;22.58;;;9.18;;
48629;SDS011;34426;52.180;4.462;2023-02-11T14:11:42;20.23;;;9.15;;
48629;SDS011;34426;52.180;4.462;2023-02-11T14:14:15;21.55;;;9.57;;
48629;SDS011;34426;52.180;4.462;2023-02-11T14:19:56;16.67;;;9.30;;
48629;SDS011;34426;52.180;4.462;2023-02-11T14:22:25;25.42;;;9.20;;
48629;SDS011;34426;52.180;4.462;2023-02-11T14:24:55;23.25;;;10.02;;
48629;SDS011;34426;52.180;4.462;2023-02-11T14:27:26;24.95;;;10.02;;
48629;SDS011;34426;52.180;4.462;2023-02-11T14:33:18;21.27;;;9.30;;
48629;SDS011;34426;52.180;4.462;2023-02-11T14:35:55;21.60;;;9.47;;
48629;SDS011;34426;52.180;4.462;2023-02-11T14:38:31;17.13;;;8.80;;
48629;SDS011;34426;52.180;4.462;2023-02-11T14:41:09;19.55;;;8.05;;
48629;SDS011;34426;52.180;4.462;2023-02-11T14:43:40;17.75;;;8.10;;
48629;SDS011;34426;52.180;4.462;2023-02-11T14:46:10;19.77;;;9.43;;
48629;SDS011;34426;52.180;4.462;2023-02-11T14:48:38;29.17;;;8.73;;
48629;SDS011;34426;52.180;4.462;2023-02-11T14:51:10;23.65;;;9.35;;
48629;SDS011;34426;52.180;4.462;2023-02-11T14:53:40;17.63;;;8.30;;
48629;SDS011;34426;52.180;4.462;2023-02-11T14:56:17;16.63;;;8.23;;
48629;SDS011;34426;52.180;4.462;2023-02-11T14:58:45;25.27;;;8.98;;
48629;SDS011;34426;52.180;4.462;2023-02-11T15:01:21;16.17;;;8.02;;
48629;SDS011;34426;52.180;4.462;2023-02-11T15:03:50;21.77;;;8.60;;